LAN3297 SBCT-SBGR
Flight info
| Callsign | LAN3297 |
|---|---|
| Flight time | 0h 49m |
| Altitude | 31000 |
| Route | XONUG UZ121 BUXUK |
| Aircraft | A321/M-SDE3FGHIRWY/LB1 |
Departure
| Time | 2026-05-01 09:48 |
|---|---|
| Airport | Curitiba-Afonso Pena International Airport (SBCT) |
Arrival
| Time | 2026-05-01 10:38 |
|---|---|
| Airport | São Paulo/Guarulhos–Governor André Franco Montoro International Airport (SBGR) |
| Time | Latitude | Longitude | Altitude | Speed | Heading |
|---|---|---|---|---|---|
| 2026-05-01 09:16 | -25.53528 | -49.17263 | 2990 ft | 0 kts | 223° |
| 2026-05-01 09:37 | -25.53527 | -49.17262 | 2989 ft | 2 kts | 224° |
| 2026-05-01 09:37 | -25.53496 | -49.17219 | 2990 ft | 4 kts | 266° |
| 2026-05-01 09:37 | -25.53502 | -49.17194 | 2990 ft | 4 kts | 313° |
| 2026-05-01 09:38 | -25.53506 | -49.17189 | 2990 ft | 0 kts | 317° |
| 2026-05-01 09:42 | -25.53505 | -49.17190 | 2990 ft | 1 kts | 317° |
| 2026-05-01 09:42 | -25.53493 | -49.17202 | 2990 ft | 3 kts | 317° |
| 2026-05-01 09:42 | -25.53417 | -49.17272 | 2989 ft | 11 kts | 348° |
| 2026-05-01 09:43 | -25.53249 | -49.17352 | 2987 ft | 19 kts | 314° |
| 2026-05-01 09:43 | -25.53154 | -49.17462 | 2985 ft | 20 kts | 314° |
| 2026-05-01 09:43 | -25.53051 | -49.17577 | 2983 ft | 22 kts | 315° |
| 2026-05-01 09:44 | -25.52977 | -49.17851 | 2982 ft | 14 kts | 276° |
| 2026-05-01 09:44 | -25.52973 | -49.17873 | 2982 ft | 1 kts | 281° |
| 2026-05-01 09:44 | -25.52948 | -49.17903 | 2982 ft | 12 kts | 317° |
| 2026-05-01 09:45 | -25.52855 | -49.17982 | 2980 ft | 19 kts | 351° |
| 2026-05-01 09:45 | -25.52670 | -49.17999 | 2982 ft | 0 kts | 357° |
| 2026-05-01 09:45 | -25.52667 | -49.17999 | 2982 ft | 1 kts | 357° |
| 2026-05-01 09:46 | -25.52621 | -49.18001 | 2982 ft | 15 kts | 357° |
| 2026-05-01 09:46 | -25.52505 | -49.18007 | 2981 ft | 18 kts | 349° |
| 2026-05-01 09:46 | -25.52382 | -49.18108 | 2982 ft | 25 kts | 315° |
| 2026-05-01 09:46 | -25.52254 | -49.18209 | 2982 ft | 19 kts | 342° |
| 2026-05-01 09:47 | -25.52251 | -49.18263 | 2982 ft | 11 kts | 146° |
| 2026-05-01 09:47 | -25.52299 | -49.18191 | 2983 ft | 12 kts | 133° |
| 2026-05-01 09:47 | -25.52410 | -49.18067 | 2981 ft | 49 kts | 135° |
| 2026-05-01 09:47 | -25.52816 | -49.17615 | 2980 ft | 114 kts | 134° |
| 2026-05-01 09:48 | -25.53505 | -49.16849 | 2995 ft | 164 kts | 135° |
| 2026-05-01 09:48 | -25.54383 | -49.15955 | 3531 ft | 163 kts | 137° |
| 2026-05-01 09:48 | -25.55157 | -49.15090 | 4281 ft | 154 kts | 130° |
| 2026-05-01 09:48 | -25.55872 | -49.14136 | 4527 ft | 172 kts | 116° |
| 2026-05-01 09:49 | -25.56026 | -49.12776 | 4675 ft | 191 kts | 72° |
| 2026-05-01 09:49 | -25.55324 | -49.11462 | 4907 ft | 210 kts | 51° |
| 2026-05-01 09:49 | -25.54362 | -49.10134 | 5049 ft | 232 kts | 51° |
| 2026-05-01 09:49 | -25.53325 | -49.08666 | 5210 ft | 257 kts | 53° |
| 2026-05-01 09:50 | -25.52238 | -49.07022 | 5673 ft | 269 kts | 54° |
| 2026-05-01 09:50 | -25.51162 | -49.05291 | 6267 ft | 277 kts | 56° |
| 2026-05-01 09:50 | -25.50092 | -49.03481 | 6862 ft | 283 kts | 57° |
| 2026-05-01 09:50 | -25.49031 | -49.01622 | 7445 ft | 287 kts | 58° |
| 2026-05-01 09:51 | -25.47977 | -48.99736 | 8088 ft | 290 kts | 58° |
| 2026-05-01 09:51 | -25.46916 | -48.97821 | 8714 ft | 293 kts | 57° |
| 2026-05-01 09:51 | -25.45633 | -48.96062 | 9314 ft | 296 kts | 41° |
| 2026-05-01 09:51 | -25.43936 | -48.94773 | 9912 ft | 298 kts | 24° |
| 2026-05-01 09:52 | -25.41963 | -48.94050 | 10435 ft | 302 kts | 12° |
| 2026-05-01 09:52 | -25.39854 | -48.93494 | 10563 ft | 322 kts | 12° |
| 2026-05-01 09:52 | -25.37611 | -48.92897 | 10679 ft | 341 kts | 13° |
| 2026-05-01 09:52 | -25.35244 | -48.92259 | 10785 ft | 358 kts | 13° |
| 2026-05-01 09:53 | -25.32779 | -48.91589 | 11011 ft | 370 kts | 13° |
| 2026-05-01 09:53 | -25.30283 | -48.90909 | 11443 ft | 375 kts | 13° |
| 2026-05-01 09:53 | -25.27740 | -48.90216 | 11949 ft | 378 kts | 12° |
| 2026-05-01 09:53 | -25.25172 | -48.89514 | 12455 ft | 381 kts | 12° |
| 2026-05-01 09:54 | -25.22590 | -48.88808 | 12972 ft | 384 kts | 12° |
| 2026-05-01 09:54 | -25.19987 | -48.88101 | 13488 ft | 387 kts | 11° |
| 2026-05-01 09:54 | -25.17360 | -48.87390 | 14003 ft | 390 kts | 11° |
| 2026-05-01 09:54 | -25.14755 | -48.86520 | 14430 ft | 395 kts | 20° |
| 2026-05-01 09:55 | -25.12309 | -48.85100 | 14871 ft | 402 kts | 31° |
| 2026-05-01 09:55 | -25.10085 | -48.83193 | 15312 ft | 406 kts | 37° |
| 2026-05-01 09:55 | -25.07899 | -48.81208 | 15755 ft | 409 kts | 37° |
| 2026-05-01 09:55 | -25.05685 | -48.79209 | 16206 ft | 412 kts | 37° |
| 2026-05-01 09:56 | -25.03455 | -48.77206 | 16648 ft | 415 kts | 37° |
| 2026-05-01 09:56 | -25.01203 | -48.75188 | 17082 ft | 418 kts | 36° |
| 2026-05-01 09:56 | -24.98940 | -48.73159 | 17529 ft | 421 kts | 36° |
| 2026-05-01 09:56 | -24.96659 | -48.71112 | 17979 ft | 425 kts | 36° |
| 2026-05-01 09:57 | -24.94358 | -48.69046 | 18427 ft | 428 kts | 36° |
| 2026-05-01 09:57 | -24.92038 | -48.66965 | 18813 ft | 431 kts | 36° |
| 2026-05-01 09:57 | -24.89712 | -48.64879 | 19193 ft | 434 kts | 36° |
| 2026-05-01 09:57 | -24.87358 | -48.62764 | 19591 ft | 436 kts | 36° |
| 2026-05-01 09:58 | -24.85003 | -48.60652 | 19972 ft | 438 kts | 36° |
| 2026-05-01 09:58 | -24.82636 | -48.58530 | 20342 ft | 440 kts | 36° |
| 2026-05-01 09:58 | -24.80252 | -48.56396 | 20694 ft | 442 kts | 36° |
| 2026-05-01 09:58 | -24.77857 | -48.54254 | 21062 ft | 445 kts | 36° |
| 2026-05-01 09:59 | -24.75449 | -48.52105 | 21409 ft | 447 kts | 36° |
| 2026-05-01 09:59 | -24.73030 | -48.49945 | 21747 ft | 449 kts | 36° |
| 2026-05-01 09:59 | -24.70605 | -48.47776 | 22097 ft | 451 kts | 36° |
| 2026-05-01 09:59 | -24.68168 | -48.45595 | 22434 ft | 453 kts | 36° |
| 2026-05-01 10:00 | -24.65714 | -48.43399 | 22766 ft | 455 kts | 36° |
| 2026-05-01 10:00 | -24.63255 | -48.41200 | 23086 ft | 457 kts | 36° |
| 2026-05-01 10:00 | -24.60786 | -48.38996 | 23406 ft | 459 kts | 36° |
| 2026-05-01 10:00 | -24.58301 | -48.36782 | 23714 ft | 461 kts | 36° |
| 2026-05-01 10:01 | -24.55812 | -48.34564 | 23975 ft | 462 kts | 36° |
| 2026-05-01 10:01 | -24.53298 | -48.32326 | 24235 ft | 464 kts | 36° |
| 2026-05-01 10:01 | -24.50780 | -48.30085 | 24479 ft | 466 kts | 36° |
| 2026-05-01 10:01 | -24.48257 | -48.27842 | 24752 ft | 468 kts | 36° |
| 2026-05-01 10:02 | -24.45721 | -48.25585 | 25002 ft | 470 kts | 36° |
| 2026-05-01 10:02 | -24.43173 | -48.23320 | 25261 ft | 473 kts | 36° |
| 2026-05-01 10:02 | -24.40605 | -48.21045 | 25535 ft | 475 kts | 36° |
| 2026-05-01 10:02 | -24.38027 | -48.18762 | 25803 ft | 476 kts | 36° |
| 2026-05-01 10:03 | -24.35424 | -48.16509 | 26075 ft | 477 kts | 32° |
| 2026-05-01 10:03 | -24.32620 | -48.14607 | 26305 ft | 475 kts | 24° |
| 2026-05-01 10:03 | -24.29712 | -48.12894 | 26548 ft | 477 kts | 24° |
| 2026-05-01 10:03 | -24.26779 | -48.11172 | 26787 ft | 478 kts | 24° |
| 2026-05-01 10:04 | -24.23838 | -48.09443 | 27020 ft | 480 kts | 24° |
| 2026-05-01 10:04 | -24.20888 | -48.07708 | 27261 ft | 482 kts | 24° |
| 2026-05-01 10:04 | -24.17926 | -48.05965 | 27511 ft | 484 kts | 24° |
| 2026-05-01 10:04 | -24.14959 | -48.04217 | 27764 ft | 486 kts | 24° |
| 2026-05-01 10:05 | -24.11971 | -48.02453 | 28021 ft | 488 kts | 24° |
| 2026-05-01 10:05 | -24.08980 | -48.00685 | 28277 ft | 490 kts | 24° |
| 2026-05-01 10:05 | -24.05976 | -47.98911 | 28578 ft | 490 kts | 24° |
| 2026-05-01 10:05 | -24.02978 | -47.97147 | 28948 ft | 489 kts | 24° |
| 2026-05-01 10:06 | -23.99978 | -47.95388 | 29313 ft | 489 kts | 24° |
| 2026-05-01 10:06 | -23.96980 | -47.93635 | 29668 ft | 488 kts | 24° |
| 2026-05-01 10:06 | -23.93992 | -47.91887 | 30025 ft | 487 kts | 24° |
| 2026-05-01 10:06 | -23.91006 | -47.90138 | 30367 ft | 487 kts | 24° |
| 2026-05-01 10:07 | -23.88023 | -47.88392 | 30674 ft | 486 kts | 24° |
| 2026-05-01 10:07 | -23.85044 | -47.86648 | 30976 ft | 485 kts | 24° |
| 2026-05-01 10:07 | -23.82059 | -47.84902 | 31148 ft | 486 kts | 24° |
| 2026-05-01 10:07 | -23.79069 | -47.83155 | 31195 ft | 491 kts | 24° |
| 2026-05-01 10:08 | -23.73547 | -47.78684 | 30517 ft | 498 kts | 40° |
| 2026-05-01 10:08 | -23.71097 | -47.76091 | 29909 ft | 496 kts | 40° |
| 2026-05-01 10:08 | -23.68642 | -47.73473 | 29333 ft | 492 kts | 41° |
| 2026-05-01 10:09 | -23.66207 | -47.70875 | 28787 ft | 487 kts | 41° |
| 2026-05-01 10:09 | -23.63758 | -47.68276 | 28230 ft | 482 kts | 41° |
| 2026-05-01 10:09 | -23.61388 | -47.65777 | 27688 ft | 478 kts | 41° |
| 2026-05-01 10:09 | -23.59006 | -47.63276 | 27143 ft | 473 kts | 41° |
| 2026-05-01 10:10 | -23.56609 | -47.60766 | 26606 ft | 469 kts | 41° |
| 2026-05-01 10:10 | -23.54271 | -47.58314 | 26084 ft | 465 kts | 41° |
| 2026-05-01 10:10 | -23.49651 | -47.53470 | 25058 ft | 457 kts | 41° |
| 2026-05-01 10:11 | -23.47360 | -47.51076 | 24582 ft | 452 kts | 41° |
| 2026-05-01 10:11 | -23.45102 | -47.48715 | 24183 ft | 446 kts | 41° |
| 2026-05-01 10:11 | -23.42884 | -47.46392 | 23857 ft | 439 kts | 41° |
| 2026-05-01 10:11 | -23.40701 | -47.44107 | 23477 ft | 432 kts | 41° |
| 2026-05-01 10:12 | -23.38553 | -47.41858 | 23174 ft | 424 kts | 41° |
| 2026-05-01 10:12 | -23.37156 | -47.40394 | 22990 ft | 419 kts | 41° |
| 2026-05-01 10:12 | -23.32282 | -47.35304 | 22384 ft | 413 kts | 41° |
| 2026-05-01 10:13 | -23.30214 | -47.33144 | 22128 ft | 411 kts | 41° |
| 2026-05-01 10:13 | -23.28187 | -47.31026 | 21877 ft | 409 kts | 41° |
| 2026-05-01 10:13 | -23.26114 | -47.28860 | 21620 ft | 407 kts | 41° |
| 2026-05-01 10:14 | -23.22726 | -47.25318 | 21194 ft | 405 kts | 41° |
| 2026-05-01 10:14 | -23.20702 | -47.23206 | 20944 ft | 403 kts | 41° |
| 2026-05-01 10:14 | -23.18681 | -47.21102 | 20690 ft | 402 kts | 41° |
| 2026-05-01 10:14 | -23.16667 | -47.19005 | 20443 ft | 400 kts | 41° |
| 2026-05-01 10:15 | -23.14665 | -47.16922 | 20199 ft | 398 kts | 41° |
| 2026-05-01 10:15 | -23.12087 | -47.14090 | 19876 ft | 397 kts | 44° |
| 2026-05-01 10:15 | -23.10820 | -47.12613 | 19689 ft | 396 kts | 45° |
| 2026-05-01 10:15 | -23.08974 | -47.10399 | 19439 ft | 395 kts | 46° |
| 2026-05-01 10:16 | -23.07146 | -47.08178 | 19204 ft | 393 kts | 46° |
| 2026-05-01 10:16 | -23.05317 | -47.05959 | 18659 ft | 396 kts | 46° |
| 2026-05-01 10:16 | -23.01591 | -47.01514 | 17442 ft | 397 kts | 46° |
| 2026-05-01 10:17 | -22.99743 | -46.99345 | 16898 ft | 396 kts | 45° |
| 2026-05-01 10:17 | -22.95992 | -46.94966 | 15661 ft | 398 kts | 46° |
| 2026-05-01 10:17 | -22.94111 | -46.92766 | 15458 ft | 386 kts | 46° |
| 2026-05-01 10:18 | -22.90644 | -46.88699 | 15187 ft | 348 kts | 46° |
| 2026-05-01 10:18 | -22.89022 | -46.86790 | 14693 ft | 334 kts | 46° |
| 2026-05-01 10:18 | -22.87491 | -46.84987 | 14306 ft | 327 kts | 48° |
| 2026-05-01 10:19 | -22.86199 | -46.82990 | 14167 ft | 323 kts | 61° |
| 2026-05-01 10:19 | -22.85135 | -46.80846 | 14173 ft | 324 kts | 61° |
| 2026-05-01 10:19 | -22.84054 | -46.78697 | 14175 ft | 324 kts | 60° |
| 2026-05-01 10:20 | -22.81886 | -46.74410 | 14179 ft | 324 kts | 60° |
| 2026-05-01 10:20 | -22.80991 | -46.72174 | 14180 ft | 325 kts | 73° |
| 2026-05-01 10:20 | -22.80353 | -46.69821 | 14184 ft | 325 kts | 73° |
| 2026-05-01 10:20 | -22.79715 | -46.67474 | 14183 ft | 325 kts | 73° |
| 2026-05-01 10:21 | -22.79073 | -46.65129 | 14185 ft | 325 kts | 73° |
| 2026-05-01 10:21 | -22.78303 | -46.60327 | 14187 ft | 325 kts | 86° |
| 2026-05-01 10:21 | -22.78174 | -46.57881 | 14190 ft | 325 kts | 86° |
| 2026-05-01 10:22 | -22.77910 | -46.52996 | 14186 ft | 325 kts | 88° |
| 2026-05-01 10:22 | -22.78455 | -46.48150 | 14193 ft | 324 kts | 100° |
| 2026-05-01 10:23 | -22.78831 | -46.45744 | 14192 ft | 324 kts | 100° |
| 2026-05-01 10:23 | -22.79706 | -46.40988 | 14193 ft | 324 kts | 110° |
| 2026-05-01 10:23 | -22.80598 | -46.38747 | 14199 ft | 324 kts | 115° |
| 2026-05-01 10:24 | -22.82941 | -46.34656 | 14201 ft | 320 kts | 143° |
| 2026-05-01 10:24 | -22.87050 | -46.33269 | 14125 ft | 316 kts | 186° |
| 2026-05-01 10:25 | -22.90993 | -46.35161 | 13354 ft | 309 kts | 213° |
| 2026-05-01 10:25 | -22.94623 | -46.37592 | 12806 ft | 305 kts | 212° |
| 2026-05-01 10:26 | -22.96432 | -46.38790 | 12535 ft | 304 kts | 212° |
| 2026-05-01 10:26 | -22.98230 | -46.39977 | 12269 ft | 302 kts | 212° |
| 2026-05-01 10:26 | -23.01814 | -46.42340 | 11731 ft | 300 kts | 212° |
| 2026-05-01 10:27 | -23.05356 | -46.44684 | 11200 ft | 297 kts | 212° |
| 2026-05-01 10:27 | -23.08869 | -46.47010 | 10678 ft | 295 kts | 212° |
| 2026-05-01 10:28 | -23.10612 | -46.48166 | 10421 ft | 293 kts | 212° |
| 2026-05-01 10:28 | -23.14076 | -46.50466 | 9895 ft | 291 kts | 212° |
| 2026-05-01 10:28 | -23.15798 | -46.51612 | 9633 ft | 290 kts | 213° |
| 2026-05-01 10:29 | -23.19181 | -46.53863 | 9271 ft | 276 kts | 213° |
| 2026-05-01 10:29 | -23.20804 | -46.54941 | 9089 ft | 270 kts | 213° |
| 2026-05-01 10:30 | -23.23922 | -46.57109 | 8666 ft | 265 kts | 215° |
| 2026-05-01 10:30 | -23.26994 | -46.59308 | 8025 ft | 267 kts | 214° |
| 2026-05-01 10:31 | -23.30070 | -46.61510 | 7544 ft | 263 kts | 215° |
| 2026-05-01 10:31 | -23.33119 | -46.63683 | 7150 ft | 261 kts | 214° |
| 2026-05-01 10:32 | -23.36157 | -46.65842 | 6792 ft | 259 kts | 214° |
| 2026-05-01 10:32 | -23.37673 | -46.66917 | 6585 ft | 260 kts | 214° |
| 2026-05-01 10:32 | -23.40736 | -46.68962 | 6184 ft | 255 kts | 200° |
| 2026-05-01 10:33 | -23.43942 | -46.68327 | 5744 ft | 240 kts | 137° |
| 2026-05-01 10:33 | -23.45814 | -46.65552 | 5249 ft | 214 kts | 123° |
| 2026-05-01 10:34 | -23.46611 | -46.64276 | 5046 ft | 193 kts | 122° |
| 2026-05-01 10:34 | -23.47214 | -46.63046 | 4870 ft | 178 kts | 105° |
| 2026-05-01 10:34 | -23.47336 | -46.61740 | 4679 ft | 172 kts | 82° |
| 2026-05-01 10:35 | -23.46744 | -46.59340 | 4454 ft | 157 kts | 73° |
| 2026-05-01 10:35 | -23.46438 | -46.58201 | 4277 ft | 155 kts | 73° |
| 2026-05-01 10:35 | -23.46131 | -46.57062 | 4088 ft | 154 kts | 73° |
| 2026-05-01 10:35 | -23.45829 | -46.55941 | 3890 ft | 154 kts | 73° |
| 2026-05-01 10:36 | -23.45231 | -46.53721 | 3503 ft | 152 kts | 73° |
| 2026-05-01 10:36 | -23.44933 | -46.52609 | 3266 ft | 153 kts | 74° |
| 2026-05-01 10:36 | -23.44646 | -46.51507 | 3050 ft | 151 kts | 75° |
| 2026-05-01 10:37 | -23.44337 | -46.50426 | 2872 ft | 151 kts | 73° |
| 2026-05-01 10:37 | -23.43751 | -46.48228 | 2475 ft | 148 kts | 74° |
| 2026-05-01 10:37 | -23.43501 | -46.47277 | 2469 ft | 106 kts | 72° |
| 2026-05-01 10:38 | -23.43337 | -46.46698 | 2465 ft | 57 kts | 73° |
| 2026-05-01 10:38 | -23.43242 | -46.46398 | 2469 ft | 33 kts | 59° |
| 2026-05-01 10:38 | -23.43092 | -46.46227 | 2470 ft | 25 kts | 45° |
| 2026-05-01 10:38 | -23.42998 | -46.46144 | 2464 ft | 18 kts | 21° |
| 2026-05-01 10:39 | -23.42862 | -46.46164 | 2465 ft | 22 kts | 345° |
| 2026-05-01 10:39 | -23.42727 | -46.46208 | 2464 ft | 7 kts | 341° |
| 2026-05-01 10:39 | -23.42720 | -46.46210 | 2468 ft | 2 kts | 341° |
| 2026-05-01 10:39 | -23.42657 | -46.46232 | 2465 ft | 14 kts | 339° |
| 2026-05-01 10:40 | -23.42633 | -46.46347 | 2461 ft | 24 kts | 254° |
| 2026-05-01 10:40 | -23.42685 | -46.46536 | 2464 ft | 26 kts | 254° |
| 2026-05-01 10:40 | -23.42735 | -46.46720 | 2467 ft | 25 kts | 253° |
| 2026-05-01 10:40 | -23.42786 | -46.46910 | 2470 ft | 25 kts | 255° |
| 2026-05-01 10:41 | -23.42835 | -46.47091 | 2466 ft | 25 kts | 254° |
| 2026-05-01 10:41 | -23.42884 | -46.47279 | 2468 ft | 24 kts | 253° |
| 2026-05-01 10:41 | -23.42944 | -46.47501 | 2469 ft | 13 kts | 255° |
| 2026-05-01 10:42 | -23.42969 | -46.47598 | 2466 ft | 15 kts | 253° |
| 2026-05-01 10:42 | -23.43005 | -46.47729 | 2464 ft | 21 kts | 252° |
| 2026-05-01 10:42 | -23.43048 | -46.47891 | 2465 ft | 23 kts | 256° |
| 2026-05-01 10:42 | -23.43090 | -46.48043 | 2470 ft | 17 kts | 253° |
| 2026-05-01 10:43 | -23.43059 | -46.48144 | 2467 ft | 15 kts | 301° |
| 2026-05-01 10:43 | -23.43053 | -46.48271 | 2468 ft | 19 kts | 265° |
| 2026-05-01 10:43 | -23.43063 | -46.48392 | 2465 ft | 14 kts | 266° |
| 2026-05-01 10:43 | -23.43011 | -46.48450 | 2465 ft | 9 kts | 353° |
| 2026-05-01 10:44 | -23.42958 | -46.48422 | 2466 ft | 10 kts | 58° |
| 2026-05-01 10:44 | -23.42934 | -46.48380 | 2465 ft | 0 kts | 59° |
| 2026-05-01 10:44 | -23.42928 | -46.48371 | 2469 ft | 3 kts | 58° |
| 2026-05-01 10:44 | -23.42925 | -46.48364 | 2469 ft | 0 kts | 59° |